createdAt,value
2018-07-06T00:02:16.492Z,99291.34
2018-07-06T00:05:03.182Z,99281.70
2018-07-06T00:07:50.052Z,99286.41
2018-07-06T00:10:36.809Z,99287.80
2018-07-06T00:13:23.507Z,99289.11
2018-07-06T00:16:10.480Z,99282.52
2018-07-06T00:18:57.149Z,99287.82
2018-07-06T00:21:43.909Z,99278.53
2018-07-06T00:24:30.605Z,99278.77
2018-07-06T00:27:17.637Z,99290.08
2018-07-06T00:30:04.674Z,99340.23
2018-07-06T00:32:51.461Z,99347.84
2018-07-06T00:35:38.156Z,99348.09
2018-07-06T00:38:24.972Z,99369.80
2018-07-06T00:41:12.085Z,99369.75
2018-07-06T00:43:59.263Z,99364.87
2018-07-06T00:46:47.091Z,99365.94
2018-07-06T00:49:33.982Z,99357.78
2018-07-06T00:52:20.971Z,99355.89
2018-07-06T00:55:07.914Z,99353.98
2018-07-06T00:57:54.818Z,99345.06
2018-07-06T01:00:41.931Z,99343.48
2018-07-06T01:03:28.747Z,99350.35
2018-07-06T01:06:15.521Z,99342.55
2018-07-06T01:09:02.405Z,99346.59
2018-07-06T01:11:49.228Z,99346.58
2018-07-06T01:14:36.005Z,99350.16
2018-07-06T01:17:22.998Z,99350.97
2018-07-06T01:20:09.884Z,99350.48
2018-07-06T01:22:56.776Z,99339.98
2018-07-06T01:25:43.614Z,99341.62
2018-07-06T01:28:30.582Z,99343.17
2018-07-06T01:31:17.624Z,99330.98
2018-07-06T01:34:05.012Z,99331.23
2018-07-06T01:36:52.126Z,99331.20
2018-07-06T01:39:39.164Z,99326.59
2018-07-06T01:42:26.334Z,99327.77
2018-07-06T01:45:13.180Z,99325.95
2018-07-06T01:47:59.980Z,99317.57
2018-07-06T01:50:46.828Z,99319.47
2018-07-06T01:53:33.665Z,99321.88
2018-07-06T01:56:20.412Z,99317.23
2018-07-06T01:59:07.192Z,99325.36
2018-07-06T02:01:54.089Z,99323.47
2018-07-06T02:04:40.775Z,99323.96
2018-07-06T02:07:27.925Z,99317.96
2018-07-06T02:10:14.901Z,99320.34
2018-07-06T02:13:01.945Z,99315.64
2018-07-06T02:15:48.611Z,99327.00
2018-07-06T02:18:35.489Z,99329.41
2018-07-06T02:21:22.327Z,99331.58
2018-07-06T02:24:09.334Z,99334.55
2018-07-06T02:26:56.045Z,99339.75
2018-07-06T02:29:43.133Z,99353.37
2018-07-06T02:32:30.357Z,99357.22
2018-07-06T02:35:17.331Z,99355.56
2018-07-06T02:38:04.283Z,99364.83
2018-07-06T02:40:51.485Z,99364.22
2018-07-06T02:43:38.708Z,99367.39
2018-07-06T02:46:26.118Z,99380.66
2018-07-06T02:49:13.228Z,99393.16
2018-07-06T02:52:00.339Z,99382.89
2018-07-06T02:54:47.453Z,99383.76
2018-07-06T02:57:34.562Z,99382.94
2018-07-06T03:00:21.609Z,99379.69
2018-07-06T03:03:08.683Z,99384.58
2018-07-06T03:05:55.999Z,99387.86
2018-07-06T03:08:43.094Z,99389.78
2018-07-06T03:11:30.121Z,99382.73
2018-07-06T03:14:17.434Z,99385.19
2018-07-06T03:17:04.650Z,99388.98
2018-07-06T03:19:51.831Z,99392.50
2018-07-06T03:22:38.901Z,99395.47
2018-07-06T03:25:25.879Z,99398.42
2018-07-06T03:28:12.995Z,99404.63
2018-07-06T03:31:00.408Z,99407.56
2018-07-06T03:33:47.724Z,99410.73
2018-07-06T03:36:34.835Z,99415.55
2018-07-06T03:39:21.876Z,99420.64
2018-07-06T03:42:09.057Z,99415.62
2018-07-06T03:44:56.271Z,99412.41
2018-07-06T03:47:43.073Z,99422.53
2018-07-06T03:50:30.696Z,99434.17
2018-07-06T03:53:17.736Z,99433.88
2018-07-06T03:56:04.862Z,99435.68
2018-07-06T03:58:51.641Z,99434.77
2018-07-06T04:01:38.531Z,99434.10
2018-07-06T04:04:25.278Z,99439.67
2018-07-06T04:07:12.151Z,99437.94
2018-07-06T04:09:58.901Z,99442.99
2018-07-06T04:12:45.637Z,99443.92
2018-07-06T04:15:32.768Z,99452.89
2018-07-06T04:18:19.818Z,99441.55
2018-07-06T04:21:06.581Z,99451.87
2018-07-06T04:23:53.527Z,99458.72
2018-07-06T04:26:40.287Z,99465.84
2018-07-06T04:29:27.111Z,99461.47
2018-07-06T04:32:14.699Z,99472.35
2018-07-06T04:35:01.653Z,99473.45
2018-07-06T04:37:48.669Z,99477.78
2018-07-06T04:40:35.834Z,99482.34
2018-07-06T04:43:22.842Z,99487.58
2018-07-06T04:46:10.058Z,99492.97
2018-07-06T04:48:57.282Z,99498.03
2018-07-06T04:51:44.275Z,99498.31
2018-07-06T04:54:31.213Z,99507.08
2018-07-06T04:57:19.115Z,99507.52
2018-07-06T05:00:06.123Z,99511.91
2018-07-06T05:02:53.440Z,99512.78
2018-07-06T05:05:40.680Z,99517.70
2018-07-06T05:08:27.366Z,99516.60
2018-07-06T05:11:14.217Z,99512.43
2018-07-06T05:14:01.167Z,99518.28
2018-07-06T05:16:48.085Z,99515.61
2018-07-06T05:19:35.290Z,99525.98
2018-07-06T05:22:22.296Z,99525.57
2018-07-06T05:25:09.081Z,99531.66
2018-07-06T05:27:55.817Z,99527.87
2018-07-06T05:30:42.737Z,99529.14
2018-07-06T05:33:30.445Z,99536.06
2018-07-06T05:36:17.235Z,99538.86
2018-07-06T05:39:05.321Z,99541.63
2018-07-06T05:41:52.279Z,99544.92
2018-07-06T05:44:39.109Z,99548.21
2018-07-06T05:47:25.990Z,99553.23
2018-07-06T05:50:12.951Z,99554.59
2018-07-06T05:52:59.881Z,99560.79
2018-07-06T05:55:46.641Z,99568.58
2018-07-06T05:58:33.516Z,99579.22
2018-07-06T06:01:20.965Z,99574.05
2018-07-06T06:04:08.407Z,99574.33
2018-07-06T06:06:55.778Z,99573.48
2018-07-06T06:09:32.334Z,99578.42
2018-07-06T06:12:02.851Z,99574.34
2018-07-06T06:14:33.738Z,99575.06
2018-07-06T06:17:04.494Z,99576.02
2018-07-06T06:19:35.273Z,99575.88
2018-07-06T06:22:06.261Z,99582.78
2018-07-06T06:24:37.081Z,99580.96
2018-07-06T06:27:07.876Z,99574.33
2018-07-06T06:29:38.635Z,99576.38
2018-07-06T06:32:09.796Z,99582.53
2018-07-06T06:34:41.030Z,99577.38
2018-07-06T06:37:11.485Z,99575.16
2018-07-06T06:39:42.281Z,99575.75
2018-07-06T06:42:12.761Z,99565.45
2018-07-06T06:44:43.060Z,99575.63
2018-07-06T06:47:13.729Z,99581.91
2018-07-06T06:49:44.348Z,99574.34
2018-07-06T06:52:15.533Z,99591.50
2018-07-06T06:54:46.065Z,99591.64
2018-07-06T06:57:16.606Z,99594.10
2018-07-06T06:59:47.101Z,99604.30
2018-07-06T07:02:17.714Z,99606.06
2018-07-06T07:04:48.261Z,99603.89
2018-07-06T07:07:18.935Z,99602.23
2018-07-06T07:09:49.797Z,99600.53
2018-07-06T07:12:20.265Z,99602.59
2018-07-06T07:14:50.529Z,99610.17
2018-07-06T07:17:21.111Z,99614.80
2018-07-06T07:19:51.412Z,99614.17
2018-07-06T07:22:21.994Z,99615.14
2018-07-06T07:24:52.458Z,99611.92
2018-07-06T07:27:23.325Z,99613.66
2018-07-06T07:29:53.881Z,99613.74
2018-07-06T07:32:24.497Z,99617.59
2018-07-06T07:34:55.101Z,99616.80
2018-07-06T07:37:25.678Z,99620.42
2018-07-06T07:39:56.289Z,99619.37
2018-07-06T07:42:26.975Z,99619.14
2018-07-06T07:44:57.490Z,99624.74
2018-07-06T07:47:28.118Z,99625.30
2018-07-06T07:49:58.709Z,99630.70
2018-07-06T07:53:41.605Z,99627.73
2018-07-06T07:56:11.887Z,99632.47
2018-07-06T07:58:42.399Z,99628.52
2018-07-06T08:01:14.780Z,99632.41
2018-07-06T08:03:45.328Z,99633.52
2018-07-06T08:06:15.863Z,99633.90
2018-07-06T08:08:46.389Z,99634.37
2018-07-06T08:11:16.849Z,99636.84
2018-07-06T08:13:47.355Z,99644.59
2018-07-06T08:16:17.827Z,99639.16
2018-07-06T08:18:48.314Z,99647.22
2018-07-06T08:21:18.806Z,99642.19
2018-07-06T08:23:49.290Z,99642.63
2018-07-06T08:26:19.858Z,99647.57
2018-07-06T08:28:50.522Z,99647.06
2018-07-06T08:31:20.968Z,99651.77
2018-07-06T08:34:02.403Z,99654.44
2018-07-06T08:37:47.677Z,99658.83
2018-07-06T08:40:18.502Z,99666.34
2018-07-06T08:42:50.181Z,99673.30
2018-07-06T08:45:20.705Z,99674.80
2018-07-06T08:47:51.037Z,99683.29
2018-07-06T08:50:21.517Z,99676.70
2018-07-06T08:52:53.112Z,99667.41
2018-07-06T08:55:23.760Z,99669.97
2018-07-06T08:57:55.399Z,99668.54
2018-07-06T09:00:25.912Z,99680.92
2018-07-06T09:02:56.154Z,99677.64
2018-07-06T09:05:26.965Z,99676.20
2018-07-06T09:07:57.774Z,99671.78
2018-07-06T09:10:28.549Z,99670.94
2018-07-06T09:12:59.300Z,99676.83
2018-07-06T09:15:30.322Z,99678.45
2018-07-06T09:18:01.068Z,99672.68
2018-07-06T09:20:31.829Z,99674.20
2018-07-06T09:23:02.561Z,99683.92
2018-07-06T09:25:33.652Z,99684.55
2018-07-06T09:28:04.357Z,99679.17
2018-07-06T09:30:35.209Z,99678.05
2018-07-06T09:33:05.738Z,99686.42
2018-07-06T09:35:36.513Z,99692.00
2018-07-06T09:38:07.288Z,99681.72
2018-07-06T09:40:38.101Z,99683.26
2018-07-06T09:43:08.883Z,99686.64
2018-07-06T09:45:39.668Z,99687.20
2018-07-06T09:48:10.425Z,99687.56
2018-07-06T09:50:41.212Z,99692.52
2018-07-06T09:53:11.965Z,99678.25
2018-07-06T09:55:42.741Z,99681.13
2018-07-06T09:58:13.496Z,99680.39
2018-07-06T10:00:49.305Z,99681.55
2018-07-06T10:03:20.037Z,99687.63
2018-07-06T10:05:50.837Z,99681.41
2018-07-06T10:08:21.650Z,99686.98
2018-07-06T10:10:52.473Z,99682.31
2018-07-06T10:13:23.436Z,99685.05
2018-07-06T10:15:54.222Z,99681.41
2018-07-06T10:18:24.982Z,99669.62
2018-07-06T10:20:55.778Z,99676.81
2018-07-06T10:23:26.863Z,99678.25
2018-07-06T10:25:57.670Z,99670.13
2018-07-06T10:30:51.014Z,99675.77
2018-07-06T10:33:21.627Z,99667.80
2018-07-06T10:35:53.109Z,99676.44
2018-07-06T10:38:24.348Z,99673.73
2018-07-06T10:40:55.135Z,99664.59
2018-07-06T10:43:25.690Z,99670.97
2018-07-06T10:45:56.458Z,99660.92
2018-07-06T10:48:27.229Z,99675.70
2018-07-06T10:50:58.039Z,99678.91
2018-07-06T10:53:28.940Z,99680.51
2018-07-06T10:56:00.042Z,99676.69
2018-07-06T10:58:30.881Z,99681.52
2018-07-06T11:01:01.853Z,99677.19
2018-07-06T11:03:32.645Z,99682.86
2018-07-06T11:06:03.403Z,99689.44
2018-07-06T11:08:34.206Z,99688.06
2018-07-06T11:11:04.962Z,99684.14
2018-07-06T11:13:35.921Z,99688.28
2018-07-06T11:16:06.797Z,99681.47
2018-07-06T11:18:37.541Z,99683.11
2018-07-06T11:21:09.980Z,99680.95
2018-07-06T11:23:41.170Z,99680.70
2018-07-06T11:26:13.529Z,99674.80
2018-07-06T11:28:46.861Z,99674.00
2018-07-06T11:31:18.007Z,99674.03
2018-07-06T11:33:49.278Z,99670.57
2018-07-06T11:36:20.393Z,99672.53
2018-07-06T11:38:51.766Z,99667.84
2018-07-06T11:41:22.721Z,99666.45
2018-07-06T11:43:53.882Z,99666.89
2018-07-06T11:46:25.026Z,99660.24
2018-07-06T11:48:55.838Z,99656.91
2018-07-06T11:51:26.947Z,99662.80
2018-07-06T11:53:57.917Z,99664.17
2018-07-06T11:56:29.082Z,99658.16
2018-07-06T11:59:01.074Z,99666.56
2018-07-06T12:01:32.238Z,99663.24
2018-07-06T12:04:04.561Z,99656.56
2018-07-06T12:06:35.699Z,99659.11
2018-07-06T12:09:06.947Z,99655.25
2018-07-06T12:11:37.784Z,99659.55
2018-07-06T12:14:08.628Z,99655.52
2018-07-06T12:16:39.434Z,99651.05
2018-07-06T12:19:10.282Z,99657.85
2018-07-06T12:21:41.013Z,99658.26
2018-07-06T12:24:11.813Z,99662.96
2018-07-06T12:26:42.586Z,99652.49
2018-07-06T12:29:13.467Z,99652.81
2018-07-06T12:31:44.389Z,99653.00
2018-07-06T12:34:14.940Z,99650.70
2018-07-06T12:36:45.702Z,99649.02
2018-07-06T12:39:16.595Z,99648.34
2018-07-06T12:41:47.371Z,99653.42
2018-07-06T12:44:18.137Z,99653.42
2018-07-06T12:46:48.861Z,99645.80
2018-07-06T12:49:20.037Z,99644.22
2018-07-06T12:51:50.795Z,99648.86
2018-07-06T12:54:21.625Z,99644.16
2018-07-06T12:56:52.365Z,99648.97
2018-07-06T12:59:23.196Z,99641.78
2018-07-06T13:01:54.001Z,99649.80
2018-07-06T13:04:24.805Z,99636.25
2018-07-06T13:06:55.577Z,99642.87
2018-07-06T13:09:26.383Z,99643.20
2018-07-06T13:11:57.157Z,99636.52
2018-07-06T13:14:27.962Z,99635.28
2018-07-06T13:16:59.006Z,99634.66
2018-07-06T13:19:29.765Z,99635.76
2018-07-06T13:22:00.511Z,99634.17
2018-07-06T13:24:31.293Z,99630.23
2018-07-06T13:27:02.061Z,99627.55
2018-07-06T13:29:32.861Z,99627.86
2018-07-06T13:32:03.666Z,99634.27
2018-07-06T13:34:34.453Z,99631.62
2018-07-06T13:37:05.312Z,99630.84
2018-07-06T13:39:36.278Z,99631.58
2018-07-06T13:42:07.027Z,99632.05
2018-07-06T13:44:37.830Z,99631.80
2018-07-06T13:47:08.569Z,99626.74
2018-07-06T13:49:39.361Z,99619.89
2018-07-06T13:52:10.188Z,99622.88
2018-07-06T13:54:40.977Z,99617.45
2018-07-06T13:57:11.729Z,99627.43
2018-07-06T13:59:42.525Z,99623.41
2018-07-06T14:02:13.274Z,99627.20
2018-07-06T14:04:44.065Z,99629.08
2018-07-06T14:07:14.904Z,99630.95
2018-07-06T14:09:45.725Z,99632.20
2018-07-06T14:12:16.545Z,99632.98
2018-07-06T14:14:47.325Z,99621.66
2018-07-06T14:17:18.076Z,99631.16
2018-07-06T14:19:48.894Z,99629.06
2018-07-06T14:22:19.649Z,99632.10
2018-07-06T14:24:50.430Z,99631.05
2018-07-06T14:27:21.161Z,99631.92
2018-07-06T14:29:51.981Z,99629.52
2018-07-06T14:32:22.760Z,99624.05
2018-07-06T14:34:53.683Z,99631.81
2018-07-06T14:37:24.635Z,99633.08
2018-07-06T14:39:55.567Z,99633.03
2018-07-06T14:42:26.410Z,99632.52
2018-07-06T14:44:56.953Z,99628.37
2018-07-06T14:47:27.701Z,99632.10
2018-07-06T14:49:58.505Z,99625.63
2018-07-06T14:52:29.335Z,99627.56
2018-07-06T14:55:00.123Z,99628.81
2018-07-06T14:57:30.895Z,99626.53
2018-07-06T15:00:01.699Z,99621.08
2018-07-06T15:02:32.478Z,99625.54
2018-07-06T15:05:03.314Z,99622.53
2018-07-06T15:07:34.309Z,99622.89
2018-07-06T15:10:05.129Z,99623.80
2018-07-06T15:12:35.885Z,99620.04
2018-07-06T15:15:07.054Z,99628.19
2018-07-06T15:17:38.218Z,99623.64
2018-07-06T15:20:09.009Z,99618.25
2018-07-06T15:22:39.837Z,99622.75
2018-07-06T15:25:10.666Z,99626.81
2018-07-06T15:27:41.598Z,99631.71
2018-07-06T15:30:12.412Z,99625.02
2018-07-06T15:32:43.179Z,99636.01
2018-07-06T15:35:14.293Z,99636.80
2018-07-06T15:37:45.071Z,99632.30
2018-07-06T15:40:16.036Z,99640.45
2018-07-06T15:42:46.854Z,99644.72
2018-07-06T15:45:17.685Z,99641.98
2018-07-06T15:47:48.474Z,99641.17
2018-07-06T15:50:19.242Z,99648.83
2018-07-06T15:52:50.412Z,99647.06
2018-07-06T15:55:21.214Z,99648.81
2018-07-06T15:57:52.011Z,99651.55
2018-07-06T16:00:22.826Z,99649.23
2018-07-06T16:02:54.214Z,99659.97
2018-07-06T16:05:25.023Z,99655.57
2018-07-06T16:07:55.875Z,99659.58
2018-07-06T16:10:26.670Z,99675.13
2018-07-06T16:12:57.441Z,99669.70
2018-07-06T16:15:28.280Z,99673.55
2018-07-06T16:17:59.053Z,99676.46
2018-07-06T16:20:29.846Z,99689.15
2018-07-06T16:23:00.609Z,99683.28
2018-07-06T16:25:31.393Z,99682.98
2018-07-06T16:28:02.162Z,99686.97
2018-07-06T16:30:32.984Z,99693.77
2018-07-06T16:33:03.538Z,99693.47
2018-07-06T16:35:34.361Z,99706.78
2018-07-06T16:38:05.121Z,99705.66
2018-07-06T16:40:36.047Z,99708.27
2018-07-06T16:43:06.904Z,99711.98
2018-07-06T16:45:37.816Z,99717.42
2018-07-06T16:48:08.912Z,99713.88
2018-07-06T16:50:39.883Z,99720.63
2018-07-06T16:53:11.083Z,99722.72
2018-07-06T16:55:42.264Z,99722.31
2018-07-06T16:58:13.310Z,99728.26
2018-07-06T17:00:44.492Z,99728.47
2018-07-06T17:03:15.569Z,99731.88
2018-07-06T17:05:45.779Z,99735.88
2018-07-06T17:08:16.558Z,99736.59
2018-07-06T17:10:46.827Z,99730.45
2018-07-06T17:13:17.033Z,99725.14
2018-07-06T17:15:47.246Z,99737.79
2018-07-06T17:18:18.053Z,99743.08
2018-07-06T17:20:48.874Z,99741.91
2018-07-06T17:23:19.631Z,99743.66
2018-07-06T17:25:50.434Z,99749.27
2018-07-06T17:28:21.268Z,99748.13
2018-07-06T17:30:52.077Z,99759.66
2018-07-06T17:33:22.942Z,99764.13
2018-07-06T17:35:53.726Z,99757.45
2018-07-06T17:38:24.483Z,99758.38
2018-07-06T17:40:55.426Z,99763.13
2018-07-06T17:43:26.292Z,99764.61
2018-07-06T17:45:57.107Z,99760.33
2018-07-06T17:48:27.885Z,99767.23
2018-07-06T17:50:58.745Z,99770.56
2018-07-06T17:53:29.517Z,99773.88
2018-07-06T17:56:00.317Z,99778.30
2018-07-06T17:58:31.078Z,99779.72
2018-07-06T18:01:01.855Z,99778.75
2018-07-06T18:03:32.662Z,99783.77
2018-07-06T18:06:03.463Z,99784.92
2018-07-06T18:08:34.241Z,99781.69
2018-07-06T18:11:05.046Z,99792.11
2018-07-06T18:13:35.869Z,99793.84
2018-07-06T18:16:06.731Z,99796.39
2018-07-06T18:18:37.188Z,99803.61
2018-07-06T18:21:07.409Z,99804.52
2018-07-06T18:23:38.191Z,99816.84
2018-07-06T18:26:08.983Z,99817.28
2018-07-06T18:28:39.770Z,99823.62
2018-07-06T18:31:10.007Z,99828.83
2018-07-06T18:33:40.254Z,99834.89
2018-07-06T18:36:10.541Z,99839.03
2018-07-06T18:38:40.761Z,99840.67
2018-07-06T18:41:11.101Z,99840.72
2018-07-06T18:43:41.336Z,99840.25
2018-07-06T18:46:11.542Z,99843.28
2018-07-06T18:48:41.830Z,99842.78
2018-07-06T18:51:12.038Z,99840.11
2018-07-06T18:53:42.273Z,99844.80
2018-07-06T18:56:12.894Z,99847.26
2018-07-06T18:58:43.122Z,99846.98
2018-07-06T19:01:13.302Z,99856.76
2018-07-06T19:03:43.486Z,99861.40
2018-07-06T19:06:13.723Z,99868.20
2018-07-06T19:08:43.913Z,99867.67
2018-07-06T19:11:14.122Z,99872.83
2018-07-06T19:13:44.292Z,99881.96
2018-07-06T19:16:14.885Z,99881.38
2018-07-06T19:18:45.361Z,99882.72
2018-07-06T19:21:15.564Z,99889.46
2018-07-06T19:23:45.751Z,99888.31
2018-07-06T19:26:16.015Z,99892.10
2018-07-06T19:28:46.173Z,99900.70
2018-07-06T19:31:16.702Z,99903.13
2018-07-06T19:33:47.235Z,99899.83
2018-07-06T19:36:17.478Z,99899.22
2018-07-06T19:38:47.860Z,99897.30
2018-07-06T19:41:18.178Z,99899.42
2018-07-06T19:43:48.353Z,99903.97
2018-07-06T19:46:18.604Z,99905.55
2018-07-06T19:48:48.789Z,99903.90
2018-07-06T19:51:19.009Z,99908.44
2018-07-06T19:53:49.245Z,99908.73
2018-07-06T19:56:19.598Z,99905.16
2018-07-06T19:58:49.812Z,99906.48
2018-07-06T20:01:20.027Z,99901.89
2018-07-06T20:03:50.265Z,99909.21
2018-07-06T20:06:20.521Z,99906.55
2018-07-06T20:08:50.733Z,99903.05
2018-07-06T20:11:20.915Z,99902.02
2018-07-06T20:13:51.117Z,99901.80
2018-07-06T20:16:21.354Z,99902.63
2018-07-06T20:18:51.568Z,99894.22
2018-07-06T20:21:21.758Z,99904.44
2018-07-06T20:23:52.001Z,99912.45
2018-07-06T20:26:22.184Z,99913.11
2018-07-06T20:28:52.439Z,99917.83
2018-07-06T20:31:22.638Z,99917.22
2018-07-06T20:33:52.905Z,99915.86
2018-07-06T20:36:23.107Z,99917.48
2018-07-06T20:38:53.063Z,99920.72
2018-07-06T20:41:23.400Z,99919.64
2018-07-06T20:43:53.626Z,99912.55
2018-07-06T20:46:23.822Z,99929.58
2018-07-06T20:48:54.039Z,99921.42
2018-07-06T20:51:24.253Z,99921.69
2018-07-06T20:53:54.536Z,99918.86
2018-07-06T20:56:24.946Z,99912.77
2018-07-06T20:58:55.306Z,99913.43
2018-07-06T21:01:25.465Z,99915.41
2018-07-06T21:03:55.703Z,99918.63
2018-07-06T21:06:25.918Z,99926.60
2018-07-06T21:08:56.105Z,99928.66
2018-07-06T21:11:26.302Z,99935.81
2018-07-06T21:13:56.595Z,99931.82
2018-07-06T21:16:26.826Z,99929.27
2018-07-06T21:18:57.010Z,99929.40
2018-07-06T21:21:27.206Z,99925.07
2018-07-06T21:23:57.279Z,99927.67
2018-07-06T21:26:27.733Z,99932.45
2018-07-06T21:28:57.925Z,99931.77
2018-07-06T21:31:27.894Z,99937.34
2018-07-06T21:33:58.098Z,99928.31
2018-07-06T21:36:28.374Z,99933.39
2018-07-06T21:38:58.656Z,99922.88
2018-07-06T21:41:28.998Z,99933.64
2018-07-06T21:43:59.206Z,99930.06
2018-07-06T21:46:29.426Z,99924.82
2018-07-06T21:48:59.637Z,99941.25
2018-07-06T21:51:30.050Z,99936.27
2018-07-06T21:54:00.246Z,99937.78
2018-07-06T21:56:30.465Z,99943.77
2018-07-06T21:59:00.663Z,99942.66
2018-07-06T22:01:30.862Z,99945.61
2018-07-06T22:04:00.772Z,99937.56
2018-07-06T22:06:31.102Z,99946.89
2018-07-06T22:09:01.280Z,99952.45
2018-07-06T22:11:31.250Z,99954.97
2018-07-06T22:14:01.452Z,99956.48
2018-07-06T22:16:31.694Z,99965.84
2018-07-06T22:19:01.897Z,99964.13
2018-07-06T22:21:32.125Z,99962.37
2018-07-06T22:24:02.342Z,99963.08
2018-07-06T22:26:32.558Z,99963.27
2018-07-06T22:29:02.759Z,99970.87
2018-07-06T22:31:33.033Z,99963.08
2018-07-06T22:34:03.233Z,99963.27
2018-07-06T22:36:33.473Z,99971.77
2018-07-06T22:39:03.892Z,99972.01
2018-07-06T22:41:34.261Z,99972.38
2018-07-06T22:44:04.425Z,99974.73
2018-07-06T22:46:34.690Z,99977.30
2018-07-06T22:49:04.870Z,99976.15
2018-07-06T22:51:35.104Z,99980.88
2018-07-06T22:54:05.394Z,99971.17
2018-07-06T22:56:35.957Z,99969.34
2018-07-06T22:59:06.309Z,99976.55
2018-07-06T23:01:36.525Z,99973.77
2018-07-06T23:04:06.865Z,99970.66
2018-07-06T23:06:37.258Z,99975.67
2018-07-06T23:09:08.383Z,99979.08
2018-07-06T23:11:38.617Z,99977.98
2018-07-06T23:14:08.855Z,99972.84
2018-07-06T23:16:39.062Z,99975.81
2018-07-06T23:19:09.268Z,99972.89
2018-07-06T23:21:39.557Z,99977.73
2018-07-06T23:24:09.849Z,99973.94
2018-07-06T23:26:40.071Z,99969.01
2018-07-06T23:29:10.533Z,99967.91
2018-07-06T23:31:40.774Z,99965.98
2018-07-06T23:34:10.991Z,99970.49
2018-07-06T23:36:41.158Z,99968.63
2018-07-06T23:39:11.346Z,99970.83
2018-07-06T23:41:41.674Z,99969.25
2018-07-06T23:44:11.890Z,99969.53
2018-07-06T23:46:42.163Z,99964.58
2018-07-06T23:49:12.362Z,99958.27
2018-07-06T23:51:42.680Z,99961.13
2018-07-06T23:54:12.933Z,99965.09
2018-07-06T23:56:43.205Z,99963.19
2018-07-06T23:59:13.441Z,99964.09
